createdAt,value
2017-06-03T00:00:13.255Z,1012.87
2017-06-03T00:00:53.853Z,1012.89
2017-06-03T00:01:34.479Z,1012.92
2017-06-03T00:02:15.118Z,1012.91
2017-06-03T00:02:55.711Z,1012.93
2017-06-03T00:03:36.320Z,1012.93
2017-06-03T00:04:16.917Z,1012.95
2017-06-03T00:04:57.530Z,1012.9
2017-06-03T00:05:38.143Z,1012.94
2017-06-03T00:06:18.737Z,1012.95
2017-06-03T00:06:59.326Z,1012.91
2017-06-03T00:07:39.916Z,1012.93
2017-06-03T00:08:20.520Z,1012.94
2017-06-03T00:09:01.113Z,1012.93
2017-06-03T00:09:41.710Z,1012.91
2017-06-03T00:10:22.345Z,1012.93
2017-06-03T00:11:02.945Z,1012.91
2017-06-03T00:11:43.546Z,1012.92
2017-06-03T00:12:24.200Z,1012.91
2017-06-03T00:13:04.783Z,1012.86
2017-06-03T00:13:45.394Z,1012.9
2017-06-03T00:14:25.992Z,1012.9
2017-06-03T00:15:06.586Z,1012.9
2017-06-03T00:15:47.215Z,1012.94
2017-06-03T00:16:27.803Z,1012.93
2017-06-03T00:17:08.399Z,1012.91
2017-06-03T00:17:48.997Z,1012.9
2017-06-03T00:18:29.583Z,1012.96
2017-06-03T00:19:10.182Z,1012.92
2017-06-03T00:19:50.792Z,1012.96
2017-06-03T00:20:31.391Z,1012.92
2017-06-03T00:21:11.969Z,1012.88
2017-06-03T00:21:52.573Z,1012.93
2017-06-03T00:22:33.158Z,1012.88
2017-06-03T00:23:13.745Z,1012.89
2017-06-03T00:23:54.383Z,1012.87
2017-06-03T00:24:34.985Z,1012.91
2017-06-03T00:25:15.577Z,1012.91
2017-06-03T00:25:56.234Z,1012.91
2017-06-03T00:26:36.815Z,1012.88
2017-06-03T00:27:17.394Z,1012.91
2017-06-03T00:27:58.971Z,1012.86
2017-06-03T00:28:39.570Z,1012.86
2017-06-03T00:29:20.159Z,1012.9
2017-06-03T00:30:00.736Z,1012.88
2017-06-03T00:30:41.326Z,1012.86
2017-06-03T00:31:21.950Z,1012.91
2017-06-03T00:32:02.541Z,1012.86
2017-06-03T00:32:43.215Z,1012.83
2017-06-03T00:33:23.795Z,1012.83
2017-06-03T00:34:04.394Z,1012.83
2017-06-03T00:34:44.999Z,1012.8
2017-06-03T00:35:25.575Z,1012.84
2017-06-03T00:36:06.152Z,1012.81
2017-06-03T00:36:46.742Z,1012.83
2017-06-03T00:37:27.339Z,1012.81
2017-06-03T00:38:07.951Z,1012.81
2017-06-03T00:38:48.555Z,1012.8
2017-06-03T00:39:29.136Z,1012.82
2017-06-03T00:40:09.734Z,1012.86
2017-06-03T00:40:50.322Z,1012.79
2017-06-03T00:41:30.908Z,1012.82
2017-06-03T00:42:11.500Z,1012.8
2017-06-03T00:42:52.113Z,1012.79
2017-06-03T00:43:32.697Z,1012.8
2017-06-03T00:44:13.292Z,1012.75
2017-06-03T00:44:53.877Z,1012.77
2017-06-03T00:45:34.463Z,1012.79
2017-06-03T00:46:15.061Z,1012.78
2017-06-03T00:46:55.650Z,1012.77
2017-06-03T00:47:36.260Z,1012.75
2017-06-03T00:48:16.849Z,1012.76
2017-06-03T00:48:57.435Z,1012.76
2017-06-03T00:49:38.014Z,1012.76
2017-06-03T00:50:18.614Z,1012.77
2017-06-03T00:50:59.189Z,1012.74
2017-06-03T00:51:39.782Z,1012.77
2017-06-03T00:52:20.421Z,1012.73
2017-06-03T00:53:01.041Z,1012.75
2017-06-03T00:53:41.628Z,1012.72
2017-06-03T00:54:22.253Z,1012.79
2017-06-03T00:55:02.825Z,1012.76
2017-06-03T00:55:43.432Z,1012.74
2017-06-03T00:56:24.051Z,1012.74
2017-06-03T00:57:04.649Z,1012.76
2017-06-03T00:57:45.241Z,1012.74
2017-06-03T00:58:25.829Z,1012.76
2017-06-03T00:59:06.408Z,1012.74
2017-06-03T00:59:47.022Z,1012.73
2017-06-03T01:00:27.616Z,1012.73
2017-06-03T01:01:08.270Z,1012.74
2017-06-03T01:01:48.857Z,1012.75
2017-06-03T01:02:29.446Z,1012.71
2017-06-03T01:03:10.029Z,1012.72
2017-06-03T01:03:50.655Z,1012.66
2017-06-03T01:04:31.377Z,1012.68
2017-06-03T01:05:11.984Z,1012.7
2017-06-03T01:05:52.563Z,1012.68
2017-06-03T01:06:33.143Z,1012.72
2017-06-03T01:07:13.729Z,1012.68
2017-06-03T01:07:54.343Z,1012.62
2017-06-03T01:08:34.962Z,1012.67
2017-06-03T01:09:15.592Z,1012.68
2017-06-03T01:09:56.196Z,1012.69
2017-06-03T01:10:36.838Z,1012.64
2017-06-03T01:11:17.429Z,1012.65
2017-06-03T01:11:58.011Z,1012.64
2017-06-03T01:12:38.606Z,1012.62
2017-06-03T01:13:19.206Z,1012.64
2017-06-03T01:13:59.870Z,1012.64
2017-06-03T01:14:40.455Z,1012.66
2017-06-03T01:15:21.049Z,1012.65
2017-06-03T01:16:01.623Z,1012.65
2017-06-03T01:16:42.210Z,1012.7
2017-06-03T01:17:22.833Z,1012.69
2017-06-03T01:18:03.438Z,1012.65
2017-06-03T01:18:44.032Z,1012.68
2017-06-03T01:19:24.635Z,1012.68
2017-06-03T01:20:05.228Z,1012.67
2017-06-03T01:20:45.813Z,1012.64
2017-06-03T01:21:26.401Z,1012.63
2017-06-03T01:22:06.979Z,1012.64
2017-06-03T01:22:47.573Z,1012.64
2017-06-03T01:23:28.171Z,1012.64
2017-06-03T01:24:08.766Z,1012.65
2017-06-03T01:24:49.364Z,1012.68
2017-06-03T01:25:29.957Z,1012.66
2017-06-03T01:26:10.606Z,1012.68
2017-06-03T01:26:51.215Z,1012.68
2017-06-03T01:27:31.845Z,1012.71
2017-06-03T01:28:12.430Z,1012.7
2017-06-03T01:28:53.066Z,1012.67
2017-06-03T01:29:33.652Z,1012.68
2017-06-03T01:30:14.270Z,1012.69
2017-06-03T01:30:54.864Z,1012.68
2017-06-03T01:31:35.459Z,1012.66
2017-06-03T01:32:16.053Z,1012.67
2017-06-03T01:32:56.686Z,1012.63
2017-06-03T01:33:37.268Z,1012.63
2017-06-03T01:34:17.852Z,1012.63
2017-06-03T01:34:58.443Z,1012.6
2017-06-03T01:35:39.056Z,1012.63
2017-06-03T01:36:19.647Z,1012.61
2017-06-03T01:37:00.241Z,1012.6
2017-06-03T01:37:40.816Z,1012.57
2017-06-03T01:38:21.440Z,1012.59
2017-06-03T01:39:02.049Z,1012.55
2017-06-03T01:39:42.656Z,1012.59
2017-06-03T01:40:23.279Z,1012.59
2017-06-03T01:41:03.900Z,1012.61
2017-06-03T01:41:44.517Z,1012.58
2017-06-03T01:42:25.107Z,1012.57
2017-06-03T01:43:05.756Z,1012.58
2017-06-03T01:43:46.347Z,1012.55
2017-06-03T01:44:26.942Z,1012.55
2017-06-03T01:45:07.563Z,1012.57
2017-06-03T01:45:48.151Z,1012.52
2017-06-03T01:46:28.765Z,1012.52
2017-06-03T01:47:09.368Z,1012.51
2017-06-03T01:47:49.961Z,1012.55
2017-06-03T01:48:30.580Z,1012.54
2017-06-03T01:49:11.171Z,1012.53
2017-06-03T01:49:51.761Z,1012.53
2017-06-03T01:50:32.359Z,1012.54
2017-06-03T01:51:12.939Z,1012.5
2017-06-03T01:51:53.545Z,1012.51
2017-06-03T01:52:34.162Z,1012.58
2017-06-03T01:53:14.809Z,1012.49
2017-06-03T01:53:55.368Z,1012.5
2017-06-03T01:54:36.034Z,1012.54
2017-06-03T01:55:16.595Z,1012.5
2017-06-03T01:55:57.207Z,1012.52
2017-06-03T01:56:37.807Z,1012.5
2017-06-03T01:57:18.391Z,1012.5
2017-06-03T01:57:58.982Z,1012.51
2017-06-03T01:58:39.567Z,1012.54
2017-06-03T01:59:20.145Z,1012.49
2017-06-03T02:00:00.751Z,1012.52
2017-06-03T02:00:41.340Z,1012.53
2017-06-03T02:01:21.992Z,1012.51
2017-06-03T02:02:02.588Z,1012.51
2017-06-03T02:02:43.181Z,1012.56
2017-06-03T02:03:23.767Z,1012.53
2017-06-03T02:04:04.356Z,1012.53
2017-06-03T02:04:44.971Z,1012.5
2017-06-03T02:05:25.558Z,1012.53
2017-06-03T02:06:06.154Z,1012.51
2017-06-03T02:06:46.791Z,1012.53
2017-06-03T02:07:27.379Z,1012.5
2017-06-03T02:08:07.988Z,1012.48
2017-06-03T02:08:48.587Z,1012.44
2017-06-03T02:09:29.211Z,1012.43
2017-06-03T02:10:09.843Z,1012.41
2017-06-03T02:10:50.434Z,1012.41
2017-06-03T02:11:31.024Z,1012.46
2017-06-03T02:12:11.636Z,1012.41
2017-06-03T02:12:52.236Z,1012.42
2017-06-03T02:13:32.848Z,1012.43
2017-06-03T02:14:13.429Z,1012.42
2017-06-03T02:14:54.020Z,1012.42
2017-06-03T02:15:34.614Z,1012.42
2017-06-03T02:16:15.223Z,1012.39
2017-06-03T02:16:55.808Z,1012.42
2017-06-03T02:17:36.418Z,1012.37
2017-06-03T02:18:17.007Z,1012.37
2017-06-03T02:18:57.602Z,1012.39
2017-06-03T02:19:38.201Z,1012.4
2017-06-03T02:20:18.815Z,1012.34
2017-06-03T02:20:59.409Z,1012.35
2017-06-03T02:21:40.010Z,1012.36
2017-06-03T02:22:20.608Z,1012.34
2017-06-03T02:23:01.197Z,1012.36
2017-06-03T02:23:41.811Z,1012.37
2017-06-03T02:24:22.412Z,1012.35
2017-06-03T02:25:03.012Z,1012.36
2017-06-03T02:25:43.631Z,1012.3
2017-06-03T02:26:24.215Z,1012.33
2017-06-03T02:27:04.803Z,1012.3
2017-06-03T02:27:45.398Z,1012.28
2017-06-03T02:28:25.996Z,1012.29
2017-06-03T02:29:06.575Z,1012.28
2017-06-03T02:29:47.164Z,1012.24
2017-06-03T02:30:27.764Z,1012.3
2017-06-03T02:31:08.355Z,1012.27
2017-06-03T02:31:48.955Z,1012.26
2017-06-03T02:32:29.556Z,1012.29
2017-06-03T02:33:10.163Z,1012.26
2017-06-03T02:33:50.762Z,1012.25
2017-06-03T02:34:31.349Z,1012.25
2017-06-03T02:35:11.932Z,1012.25
2017-06-03T02:35:52.541Z,1012.25
2017-06-03T02:36:33.125Z,1012.28
2017-06-03T02:37:13.716Z,1012.27
2017-06-03T02:37:54.294Z,1012.33
2017-06-03T02:38:34.893Z,1012.34
2017-06-03T02:39:15.484Z,1012.31
2017-06-03T02:39:56.071Z,1012.31
2017-06-03T02:40:36.643Z,1012.31
2017-06-03T02:41:17.235Z,1012.3
2017-06-03T02:41:57.818Z,1012.29
2017-06-03T02:42:38.408Z,1012.23
2017-06-03T02:43:18.997Z,1012.25
2017-06-03T02:43:59.611Z,1012.24
2017-06-03T02:44:40.230Z,1012.23
2017-06-03T02:45:20.816Z,1012.27
2017-06-03T02:46:01.409Z,1012.25
2017-06-03T02:46:42.054Z,1012.22
2017-06-03T02:47:22.667Z,1012.22
2017-06-03T02:48:03.259Z,1012.2
2017-06-03T02:48:43.852Z,1012.24
2017-06-03T02:49:24.426Z,1012.2
2017-06-03T02:50:05.012Z,1012.21
2017-06-03T02:50:45.606Z,1012.21
2017-06-03T02:51:26.190Z,1012.18
2017-06-03T02:52:06.866Z,1012.23
2017-06-03T02:52:47.452Z,1012.18
2017-06-03T02:53:28.078Z,1012.19
2017-06-03T02:54:08.689Z,1012.17
2017-06-03T02:54:49.312Z,1012.2
2017-06-03T02:55:29.901Z,1012.19
2017-06-03T02:56:10.506Z,1012.2
2017-06-03T02:56:51.103Z,1012.17
2017-06-03T02:57:31.709Z,1012.17
2017-06-03T02:58:12.309Z,1012.13
2017-06-03T02:58:52.894Z,1012.15
2017-06-03T02:59:33.475Z,1012.12
2017-06-03T03:00:14.099Z,1012.13
2017-06-03T03:00:54.685Z,1012.14
2017-06-03T03:01:35.274Z,1012.1
2017-06-03T03:02:15.868Z,1012.11
2017-06-03T03:02:56.462Z,1012.14
2017-06-03T03:03:37.042Z,1012.07
2017-06-03T03:04:17.667Z,1012.07
2017-06-03T03:04:58.268Z,1012.07
2017-06-03T03:05:38.894Z,1012.05
2017-06-03T03:06:19.488Z,1012.02
2017-06-03T03:07:00.075Z,1012.03
2017-06-03T03:07:40.667Z,1012.05
2017-06-03T03:08:21.266Z,1012.04
2017-06-03T03:09:01.858Z,1012.03
2017-06-03T03:09:42.461Z,1012.02
2017-06-03T03:10:23.090Z,1012.01
2017-06-03T03:11:03.677Z,1012.01
2017-06-03T03:11:44.305Z,1012.02
2017-06-03T03:12:24.851Z,1012.01
2017-06-03T03:13:05.445Z,1012.05
2017-06-03T03:13:46.033Z,1012.03
2017-06-03T03:14:26.639Z,1012.04
2017-06-03T03:15:07.257Z,1012.03
2017-06-03T03:15:47.870Z,1012.06
2017-06-03T03:16:28.448Z,1012.08
2017-06-03T03:17:09.038Z,1012.09
2017-06-03T03:17:49.612Z,1012.13
2017-06-03T03:18:30.234Z,1012.15
2017-06-03T03:19:10.831Z,1012.15
2017-06-03T03:19:51.436Z,1012.18
2017-06-03T03:20:32.031Z,1012.14
2017-06-03T03:21:12.730Z,1012.14
2017-06-03T03:21:53.337Z,1012.13
2017-06-03T03:22:33.930Z,1012.16
2017-06-03T03:23:14.515Z,1012.13
2017-06-03T03:23:55.106Z,1012.15
2017-06-03T03:24:35.693Z,1012.12
2017-06-03T03:25:16.390Z,1012.13
2017-06-03T03:25:57.002Z,1012.14
2017-06-03T03:26:37.604Z,1012.18
2017-06-03T03:27:18.191Z,1012.15
2017-06-03T03:27:58.784Z,1012.15
2017-06-03T03:28:39.368Z,1012.19
2017-06-03T03:29:19.968Z,1012.19
2017-06-03T03:30:00.550Z,1012.18
2017-06-03T03:30:41.159Z,1012.21
2017-06-03T03:31:21.841Z,1012.22
2017-06-03T03:32:02.438Z,1012.18
2017-06-03T03:32:43.026Z,1012.22
2017-06-03T03:33:23.634Z,1012.26
2017-06-03T03:34:04.230Z,1012.25
2017-06-03T03:34:44.815Z,1012.27
2017-06-03T03:35:25.422Z,1012.25
2017-06-03T03:36:06.042Z,1012.27
2017-06-03T03:36:46.630Z,1012.26
2017-06-03T03:37:27.239Z,1012.27
2017-06-03T03:38:07.848Z,1012.24
2017-06-03T03:38:48.450Z,1012.23
2017-06-03T03:39:29.047Z,1012.24
2017-06-03T03:40:09.637Z,1012.22
2017-06-03T03:40:50.235Z,1012.25
2017-06-03T03:41:30.843Z,1012.26
2017-06-03T03:42:11.443Z,1012.29
2017-06-03T03:42:52.032Z,1012.29
2017-06-03T03:43:32.628Z,1012.29
2017-06-03T03:44:13.229Z,1012.3
2017-06-03T03:44:53.813Z,1012.27
2017-06-03T03:45:34.414Z,1012.29
2017-06-03T03:46:14.985Z,1012.29
2017-06-03T03:46:55.582Z,1012.33
2017-06-03T03:47:36.175Z,1012.32
2017-06-03T03:48:16.760Z,1012.31
2017-06-03T03:48:57.358Z,1012.3
2017-06-03T03:49:37.969Z,1012.3
2017-06-03T03:50:18.603Z,1012.31
2017-06-03T03:50:59.223Z,1012.31
2017-06-03T03:51:39.807Z,1012.33
2017-06-03T03:52:20.399Z,1012.31
2017-06-03T03:53:01.037Z,1012.3
2017-06-03T03:53:41.611Z,1012.34
2017-06-03T03:54:22.252Z,1012.29
2017-06-03T03:55:02.846Z,1012.33
2017-06-03T03:55:43.433Z,1012.31
2017-06-03T03:56:24.050Z,1012.34
2017-06-03T03:57:04.645Z,1012.33
2017-06-03T03:57:45.244Z,1012.32
2017-06-03T03:58:25.852Z,1012.3
2017-06-03T03:59:06.452Z,1012.37
2017-06-03T03:59:47.051Z,1012.36
2017-06-03T04:00:27.650Z,1012.29
2017-06-03T04:01:08.217Z,1012.39
2017-06-03T04:01:48.803Z,1012.36
2017-06-03T04:02:29.399Z,1012.38
2017-06-03T04:03:09.991Z,1012.36
2017-06-03T04:03:50.616Z,1012.34
2017-06-03T04:04:31.201Z,1012.35
2017-06-03T04:05:11.783Z,1012.36
2017-06-03T04:05:52.384Z,1012.4
2017-06-03T04:06:33.028Z,1012.39
2017-06-03T04:07:13.656Z,1012.36
2017-06-03T04:07:54.238Z,1012.34
2017-06-03T04:08:34.820Z,1012.37
2017-06-03T04:09:15.443Z,1012.36
2017-06-03T04:09:56.026Z,1012.35
2017-06-03T04:10:36.613Z,1012.36
2017-06-03T04:11:17.195Z,1012.37
2017-06-03T04:11:57.784Z,1012.38
2017-06-03T04:12:38.380Z,1012.33
2017-06-03T04:13:18.982Z,1012.36
2017-06-03T04:13:59.587Z,1012.35
2017-06-03T04:14:40.175Z,1012.31
2017-06-03T04:15:20.766Z,1012.31
2017-06-03T04:16:01.360Z,1012.31
2017-06-03T04:16:41.949Z,1012.31
2017-06-03T04:17:22.551Z,1012.26
2017-06-03T04:18:03.124Z,1012.25
2017-06-03T04:18:43.720Z,1012.25
2017-06-03T04:19:24.312Z,1012.26
2017-06-03T04:20:04.905Z,1012.21
2017-06-03T04:20:45.502Z,1012.23
2017-06-03T04:21:26.093Z,1012.23
2017-06-03T04:22:06.690Z,1012.23
2017-06-03T04:22:47.269Z,1012.22
2017-06-03T04:23:27.874Z,1012.19
2017-06-03T04:24:08.483Z,1012.19
2017-06-03T04:24:49.059Z,1012.16
2017-06-03T04:25:29.656Z,1012.15
2017-06-03T04:26:10.264Z,1012.22
2017-06-03T04:26:50.892Z,1012.16
2017-06-03T04:27:31.488Z,1012.17
2017-06-03T04:28:12.085Z,1012.15
2017-06-03T04:28:52.672Z,1012.15
2017-06-03T04:29:33.290Z,1012.15
2017-06-03T04:30:13.885Z,1012.18
2017-06-03T04:30:54.479Z,1012.17
2017-06-03T04:31:35.067Z,1012.14
2017-06-03T04:32:15.688Z,1012.14
2017-06-03T04:32:56.290Z,1012.12
2017-06-03T04:33:36.894Z,1012.15
2017-06-03T04:34:17.497Z,1012.14
2017-06-03T04:34:58.247Z,1012.18
2017-06-03T04:35:38.842Z,1012.17
2017-06-03T04:36:19.441Z,1012.16
2017-06-03T04:37:00.030Z,1012.21
2017-06-03T04:37:40.641Z,1012.18
2017-06-03T04:38:21.222Z,1012.17
2017-06-03T04:39:01.812Z,1012.18
2017-06-03T04:39:42.403Z,1012.2
2017-06-03T04:40:23.089Z,1012.19
2017-06-03T04:41:03.705Z,1012.16
2017-06-03T04:41:44.309Z,1012.22
2017-06-03T04:42:24.891Z,1012.14
2017-06-03T04:43:05.474Z,1012.18
2017-06-03T04:43:46.054Z,1012.15
2017-06-03T04:44:26.650Z,1012.17
2017-06-03T04:45:07.266Z,1012.14
2017-06-03T04:45:47.904Z,1012.1
2017-06-03T04:46:28.502Z,1012.06
2017-06-03T04:47:09.088Z,1012.05
2017-06-03T04:47:49.677Z,1012.11
2017-06-03T04:48:30.270Z,1012.12
2017-06-03T04:49:10.888Z,1012.12
2017-06-03T04:49:51.493Z,1012.1
2017-06-03T04:50:32.097Z,1012.11
2017-06-03T04:51:12.702Z,1012.11
2017-06-03T04:51:53.336Z,1012.06
2017-06-03T04:52:33.954Z,1012.07
2017-06-03T04:53:15.151Z,1012.06
2017-06-03T04:53:55.758Z,1012.08
2017-06-03T04:54:36.346Z,1012.13
2017-06-03T04:55:16.934Z,1012.15
2017-06-03T04:55:57.516Z,1012.11
2017-06-03T04:56:38.112Z,1012.12
2017-06-03T04:57:20.196Z,1012.09
2017-06-03T04:58:00.784Z,1012.07
2017-06-03T04:58:45.451Z,1012.06
2017-06-03T04:59:26.044Z,1012.07
2017-06-03T05:00:06.722Z,1012.06
2017-06-03T05:00:47.306Z,1012.07
2017-06-03T05:01:27.897Z,1012.1
2017-06-03T05:02:08.533Z,1012.02
2017-06-03T05:02:49.113Z,1012.06
2017-06-03T05:03:29.714Z,1012.03
2017-06-03T05:04:10.309Z,1012
2017-06-03T05:04:50.892Z,1012.02
2017-06-03T05:05:31.502Z,1012.02
2017-06-03T05:06:12.080Z,1011.96
2017-06-03T05:06:52.661Z,1011.98
2017-06-03T05:07:33.250Z,1012.01
2017-06-03T05:08:13.851Z,1012.03
2017-06-03T05:08:54.521Z,1011.99
2017-06-03T05:09:36.542Z,1012
2017-06-03T05:10:17.124Z,1011.98
2017-06-03T05:10:57.722Z,1011.95
2017-06-03T05:11:38.354Z,1011.98
2017-06-03T05:12:19.188Z,1011.96
2017-06-03T05:12:59.803Z,1011.93
2017-06-03T05:13:40.391Z,1011.94
2017-06-03T05:14:20.988Z,1011.95
2017-06-03T05:15:01.587Z,1011.84
2017-06-03T05:15:42.226Z,1011.84
2017-06-03T05:16:22.940Z,1011.84
2017-06-03T05:17:03.534Z,1011.84
2017-06-03T05:17:44.157Z,1011.84
2017-06-03T05:18:33.312Z,1011.87
2017-06-03T05:19:27.025Z,1011.85
2017-06-03T05:20:08.001Z,1011.8
2017-06-03T05:20:51.907Z,1011.84
2017-06-03T05:21:35.937Z,1011.8
2017-06-03T05:22:25.346Z,1011.84
2017-06-03T05:23:17.853Z,1011.8
2017-06-03T05:23:58.628Z,1011.79
2017-06-03T05:24:56.530Z,1011.84
2017-06-03T05:25:50.004Z,1011.83
2017-06-03T05:26:37.361Z,1011.87
2017-06-03T05:27:20.701Z,1011.87
2017-06-03T05:28:08.005Z,1011.96
2017-06-03T05:28:53.707Z,1011.92
2017-06-03T05:29:34.590Z,1011.95
2017-06-03T05:30:18.604Z,1011.99
2017-06-03T05:31:01.565Z,1012.07
2017-06-03T05:31:43.330Z,1012.06
2017-06-03T05:32:23.913Z,1012.15
2017-06-03T05:33:04.512Z,1012.14
2017-06-03T05:33:45.923Z,1012.21
2017-06-03T05:34:26.580Z,1012.18
2017-06-03T05:35:11.170Z,1012.3
2017-06-03T05:36:01.619Z,1012.33
2017-06-03T05:36:49.044Z,1012.35
2017-06-03T05:37:36.632Z,1012.39
2017-06-03T05:38:20.495Z,1012.37
2017-06-03T05:39:06.949Z,1012.41
2017-06-03T05:39:47.571Z,1012.51
2017-06-03T05:40:28.191Z,1012.54
2017-06-03T05:41:08.810Z,1012.57
2017-06-03T05:41:59.570Z,1012.56
2017-06-03T05:42:48.714Z,1012.74
2017-06-03T05:43:34.786Z,1012.8
2017-06-03T05:44:18.220Z,1012.85
2017-06-03T05:45:01.938Z,1012.91
2017-06-03T05:46:52.023Z,1013.04
2017-06-03T05:47:59.679Z,1013.27
2017-06-03T05:48:40.221Z,1013.31
2017-06-03T05:49:20.809Z,1013.36
2017-06-03T05:50:01.417Z,1013.38
2017-06-03T05:50:41.994Z,1013.43
2017-06-03T05:51:22.599Z,1013.36
2017-06-03T05:52:03.197Z,1013.49
2017-06-03T05:52:43.771Z,1013.56
2017-06-03T05:53:24.356Z,1013.65
2017-06-03T05:54:05.819Z,1013.64
2017-06-03T05:54:46.422Z,1013.62
2017-06-03T05:55:27.004Z,1013.65
2017-06-03T05:56:07.662Z,1013.78
2017-06-03T05:56:48.258Z,1013.86
2017-06-03T05:57:28.854Z,1013.81
2017-06-03T05:58:09.467Z,1013.73
2017-06-03T05:58:50.125Z,1013.56
2017-06-03T05:59:30.749Z,1013.49
2017-06-03T06:00:11.355Z,1013.41
2017-06-03T06:00:51.971Z,1013.35
2017-06-03T06:01:32.572Z,1013.28
2017-06-03T06:02:13.198Z,1013.25
2017-06-03T06:02:53.827Z,1013.21
2017-06-03T06:03:34.429Z,1013.18
2017-06-03T06:04:15.067Z,1013.15
2017-06-03T06:04:55.689Z,1013.05
2017-06-03T06:05:36.353Z,1013.02
2017-06-03T06:06:17.067Z,1012.93
2017-06-03T06:06:57.679Z,1012.97
2017-06-03T06:07:38.284Z,1013.05
2017-06-03T06:08:18.936Z,1013.02
2017-06-03T06:08:59.535Z,1013
2017-06-03T06:09:40.179Z,1012.97
2017-06-03T06:10:20.798Z,1013.21
2017-06-03T06:11:01.411Z,1013.27
2017-06-03T06:11:42.015Z,1013.12
2017-06-03T06:12:22.625Z,1012.96
2017-06-03T06:13:03.241Z,1012.98
2017-06-03T06:13:45.151Z,1013.15
2017-06-03T06:14:25.761Z,1013.36
2017-06-03T06:15:06.347Z,1013.52
2017-06-03T06:15:47.015Z,1013.62
2017-06-03T06:16:27.609Z,1013.57
2017-06-03T06:17:08.218Z,1013.54
2017-06-03T06:17:48.833Z,1013.57
2017-06-03T06:18:29.438Z,1013.57
2017-06-03T06:19:10.062Z,1013.69
2017-06-03T06:19:50.960Z,1013.78
2017-06-03T06:20:31.589Z,1013.92
2017-06-03T06:21:12.529Z,1014.13
2017-06-03T06:21:53.196Z,1014.18
2017-06-03T06:22:33.905Z,1014.16
2017-06-03T06:23:19.606Z,1014.21
2017-06-03T06:24:00.390Z,1014.24
2017-06-03T06:24:43.639Z,1014.15
2017-06-03T06:25:24.692Z,1014.12
2017-06-03T06:26:05.302Z,1014
2017-06-03T06:26:45.906Z,1013.95
2017-06-03T06:27:26.628Z,1013.98
2017-06-03T06:28:07.259Z,1014.07
2017-06-03T06:28:47.910Z,1014.07
2017-06-03T06:29:28.508Z,1014.07
2017-06-03T06:30:09.137Z,1014.01
2017-06-03T06:30:53.314Z,1014
2017-06-03T06:31:35.532Z,1013.94
2017-06-03T06:32:17.930Z,1014.01
2017-06-03T06:33:01.682Z,1014.29
2017-06-03T06:33:43.004Z,1014.35
2017-06-03T06:34:24.959Z,1014.19
2017-06-03T06:35:06.754Z,1013.91
2017-06-03T06:35:52.000Z,1013.74
2017-06-03T06:36:39.620Z,1013.54
2017-06-03T06:37:20.329Z,1013.05
2017-06-03T06:38:00.933Z,1012.56
2017-06-03T06:38:41.529Z,1012.34
2017-06-03T06:39:22.142Z,1012.27
2017-06-03T06:40:02.733Z,1012.17
2017-06-03T06:40:43.364Z,1012.19
2017-06-03T06:41:24.021Z,1012.19
2017-06-03T06:42:04.687Z,1012.16
2017-06-03T06:42:45.497Z,1012.2
2017-06-03T06:43:26.102Z,1012.17
2017-06-03T06:44:06.706Z,1012.11
2017-06-03T06:44:47.310Z,1012.14
2017-06-03T06:45:27.916Z,1012.1
2017-06-03T06:46:08.533Z,1012.16
2017-06-03T06:46:49.119Z,1012.28
2017-06-03T06:47:29.746Z,1012.6
2017-06-03T06:48:10.363Z,1012.99
2017-06-03T06:48:51.040Z,1013.28
2017-06-03T06:49:31.639Z,1013.29
2017-06-03T06:50:12.253Z,1013.27
2017-06-03T06:50:52.848Z,1013.12
2017-06-03T06:51:33.505Z,1012.84
2017-06-03T06:52:14.173Z,1012.52
2017-06-03T06:52:54.789Z,1012.27
2017-06-03T06:53:35.452Z,1012.1
2017-06-03T06:54:16.054Z,1012.07
2017-06-03T06:54:56.694Z,1012.01
2017-06-03T06:55:37.337Z,1011.98
2017-06-03T06:56:17.949Z,1012.03
2017-06-03T06:56:58.556Z,1012.01
2017-06-03T06:57:39.208Z,1011.98
2017-06-03T06:58:19.816Z,1011.98
2017-06-03T06:59:00.442Z,1011.98
2017-06-03T06:59:41.035Z,1011.99
2017-06-03T07:00:21.638Z,1012
2017-06-03T07:01:02.235Z,1011.97
2017-06-03T07:01:42.831Z,1011.97
2017-06-03T07:02:23.792Z,1011.98
2017-06-03T07:03:04.385Z,1011.98
2017-06-03T07:03:44.990Z,1012.01
2017-06-03T07:04:25.623Z,1011.96
2017-06-03T07:05:06.253Z,1012
2017-06-03T07:05:46.849Z,1012.02
2017-06-03T07:06:27.483Z,1011.89
2017-06-03T07:07:08.069Z,1011.95
2017-06-03T07:07:48.682Z,1011.9
2017-06-03T07:08:29.302Z,1011.93
2017-06-03T07:09:10.474Z,1011.84
2017-06-03T07:09:50.852Z,1011.84
2017-06-03T07:10:31.587Z,1011.87
2017-06-03T07:11:12.223Z,1011.84
2017-06-03T07:11:52.824Z,1011.8
2017-06-03T07:12:33.421Z,1011.83
2017-06-03T07:13:14.026Z,1011.85
2017-06-03T07:13:54.738Z,1011.83
2017-06-03T07:14:35.341Z,1011.8
2017-06-03T07:15:15.944Z,1011.77
2017-06-03T07:15:56.541Z,1011.78
2017-06-03T07:16:37.133Z,1011.8
2017-06-03T07:17:17.739Z,1011.75
2017-06-03T07:17:58.381Z,1011.74
2017-06-03T07:18:39.055Z,1011.75
2017-06-03T07:19:19.822Z,1011.71
2017-06-03T07:20:00.467Z,1011.66
2017-06-03T07:20:41.202Z,1011.7
2017-06-03T07:21:21.800Z,1011.72
2017-06-03T07:22:02.385Z,1011.72
2017-06-03T07:22:43.014Z,1011.7
2017-06-03T07:23:23.624Z,1011.71
2017-06-03T07:24:04.230Z,1011.71
2017-06-03T07:24:44.826Z,1011.68
2017-06-03T07:25:25.441Z,1011.78
2017-06-03T07:26:06.075Z,1011.75
2017-06-03T07:26:46.664Z,1011.83
2017-06-03T07:27:27.314Z,1011.79
2017-06-03T07:28:07.911Z,1011.79
2017-06-03T07:28:48.518Z,1011.79
2017-06-03T07:29:29.107Z,1011.77
2017-06-03T07:30:09.741Z,1011.78
2017-06-03T07:30:50.363Z,1011.76
2017-06-03T07:31:30.955Z,1011.77
2017-06-03T07:32:11.569Z,1011.76
2017-06-03T07:32:52.166Z,1011.75
2017-06-03T07:33:32.757Z,1011.76
2017-06-03T07:34:13.558Z,1011.69
2017-06-03T07:34:54.298Z,1011.76
2017-06-03T07:35:34.906Z,1011.71
2017-06-03T07:36:15.507Z,1011.77
2017-06-03T07:36:56.114Z,1011.76
2017-06-03T07:37:36.721Z,1011.75
2017-06-03T07:38:17.366Z,1011.8
2017-06-03T07:38:58.023Z,1011.74
2017-06-03T07:39:38.762Z,1011.75
2017-06-03T07:40:19.353Z,1011.78
2017-06-03T07:41:00.018Z,1011.78
2017-06-03T07:41:40.602Z,1011.76
2017-06-03T07:42:21.196Z,1011.79
2017-06-03T07:43:01.796Z,1011.78
2017-06-03T07:43:42.420Z,1011.79
2017-06-03T07:44:23.016Z,1011.77
2017-06-03T07:45:03.628Z,1011.76
2017-06-03T07:45:44.295Z,1011.71
2017-06-03T07:46:24.916Z,1011.7
2017-06-03T07:47:05.523Z,1011.75
2017-06-03T07:47:46.111Z,1011.78
2017-06-03T07:48:26.727Z,1011.74
2017-06-03T07:49:07.407Z,1011.72
2017-06-03T07:49:47.995Z,1011.69
2017-06-03T07:50:28.595Z,1011.71
2017-06-03T07:51:09.188Z,1011.68
2017-06-03T07:51:49.780Z,1011.66
2017-06-03T07:52:30.383Z,1011.64
2017-06-03T07:53:10.980Z,1011.62
2017-06-03T07:53:51.570Z,1011.63
2017-06-03T07:54:32.178Z,1011.62
2017-06-03T07:55:12.764Z,1011.58
2017-06-03T07:55:53.387Z,1011.59
2017-06-03T07:56:34.062Z,1011.61
2017-06-03T07:57:14.674Z,1011.63
2017-06-03T07:57:55.286Z,1011.64
2017-06-03T07:58:35.885Z,1011.58
2017-06-03T07:59:16.475Z,1011.6
2017-06-03T07:59:57.059Z,1011.63
2017-06-03T08:00:37.658Z,1011.57
2017-06-03T08:01:18.260Z,1011.64
2017-06-03T08:01:58.856Z,1011.64
2017-06-03T08:02:39.514Z,1011.67
2017-06-03T08:03:20.068Z,1011.62
2017-06-03T08:04:00.669Z,1011.63
2017-06-03T08:04:41.295Z,1011.62
2017-06-03T08:05:21.920Z,1011.64
2017-06-03T08:06:02.507Z,1011.62
2017-06-03T08:06:43.134Z,1011.59
2017-06-03T08:07:23.757Z,1011.61
2017-06-03T08:08:04.434Z,1011.59
2017-06-03T08:08:45.037Z,1011.62
2017-06-03T08:09:25.663Z,1011.58
2017-06-03T08:10:06.269Z,1011.6
2017-06-03T08:10:46.868Z,1011.58
2017-06-03T08:11:27.458Z,1011.56
2017-06-03T08:12:08.058Z,1011.55
2017-06-03T08:12:48.695Z,1011.57
2017-06-03T08:13:29.300Z,1011.61
2017-06-03T08:14:09.896Z,1011.6
2017-06-03T08:14:50.498Z,1011.61
2017-06-03T08:15:38.711Z,1011.58
2017-06-03T08:16:19.311Z,1011.58
2017-06-03T08:16:59.955Z,1011.58
2017-06-03T08:17:40.551Z,1011.57
2017-06-03T08:18:21.147Z,1011.56